sensor_id;sensor_type;location;lat;lon;timestamp;P1;durP1;ratioP1;P2;durP2;ratioP2
17761;SDS011;9005;48.838;10.112;2024-01-30T00:01:01;5.53;;;4.28;;
17761;SDS011;9005;48.838;10.112;2024-01-30T00:03:27;6.20;;;4.18;;
17761;SDS011;9005;48.838;10.112;2024-01-30T00:05:55;6.07;;;3.95;;
17761;SDS011;9005;48.838;10.112;2024-01-30T00:08:22;5.97;;;3.78;;
17761;SDS011;9005;48.838;10.112;2024-01-30T00:10:50;4.47;;;3.72;;
17761;SDS011;9005;48.838;10.112;2024-01-30T00:13:17;4.25;;;3.40;;
17761;SDS011;9005;48.838;10.112;2024-01-30T00:15:44;4.43;;;3.42;;
17761;SDS011;9005;48.838;10.112;2024-01-30T00:18:11;5.57;;;4.20;;
17761;SDS011;9005;48.838;10.112;2024-01-30T00:20:38;4.20;;;3.10;;
17761;SDS011;9005;48.838;10.112;2024-01-30T00:23:05;5.57;;;2.67;;
17761;SDS011;9005;48.838;10.112;2024-01-30T00:25:31;4.10;;;2.90;;
17761;SDS011;9005;48.838;10.112;2024-01-30T00:28:01;5.07;;;2.92;;
17761;SDS011;9005;48.838;10.112;2024-01-30T00:30:28;3.15;;;1.95;;
17761;SDS011;9005;48.838;10.112;2024-01-30T00:32:54;3.30;;;2.63;;
17761;SDS011;9005;48.838;10.112;2024-01-30T00:35:21;6.97;;;3.13;;
17761;SDS011;9005;48.838;10.112;2024-01-30T00:37:48;5.20;;;3.72;;
17761;SDS011;9005;48.838;10.112;2024-01-30T00:40:15;4.82;;;3.42;;
17761;SDS011;9005;48.838;10.112;2024-01-30T00:42:43;3.80;;;3.38;;
17761;SDS011;9005;48.838;10.112;2024-01-30T00:45:13;4.90;;;3.72;;
17761;SDS011;9005;48.838;10.112;2024-01-30T00:47:40;4.07;;;3.67;;
17761;SDS011;9005;48.838;10.112;2024-01-30T00:50:07;4.07;;;3.20;;
17761;SDS011;9005;48.838;10.112;2024-01-30T00:52:34;5.15;;;3.55;;
17761;SDS011;9005;48.838;10.112;2024-01-30T00:55:01;3.50;;;2.33;;
17761;SDS011;9005;48.838;10.112;2024-01-30T00:57:28;5.65;;;3.35;;
17761;SDS011;9005;48.838;10.112;2024-01-30T00:59:55;5.43;;;3.67;;
17761;SDS011;9005;48.838;10.112;2024-01-30T01:02:23;4.30;;;3.30;;
17761;SDS011;9005;48.838;10.112;2024-01-30T01:04:50;4.43;;;3.55;;
17761;SDS011;9005;48.838;10.112;2024-01-30T01:07:16;4.95;;;3.65;;
17761;SDS011;9005;48.838;10.112;2024-01-30T01:09:43;4.65;;;3.72;;
17761;SDS011;9005;48.838;10.112;2024-01-30T01:12:10;3.65;;;2.75;;
17761;SDS011;9005;48.838;10.112;2024-01-30T01:14:36;5.10;;;4.00;;
17761;SDS011;9005;48.838;10.112;2024-01-30T01:17:03;5.05;;;3.70;;
17761;SDS011;9005;48.838;10.112;2024-01-30T01:19:31;5.35;;;3.67;;
17761;SDS011;9005;48.838;10.112;2024-01-30T01:21:58;6.40;;;3.90;;
17761;SDS011;9005;48.838;10.112;2024-01-30T01:24:25;5.57;;;4.13;;
17761;SDS011;9005;48.838;10.112;2024-01-30T01:26:51;5.07;;;3.75;;
17761;SDS011;9005;48.838;10.112;2024-01-30T01:29:18;4.18;;;3.60;;
17761;SDS011;9005;48.838;10.112;2024-01-30T01:31:45;6.60;;;3.42;;
17761;SDS011;9005;48.838;10.112;2024-01-30T01:34:13;5.10;;;4.10;;
17761;SDS011;9005;48.838;10.112;2024-01-30T01:36:41;4.72;;;3.20;;
17761;SDS011;9005;48.838;10.112;2024-01-30T01:39:08;4.18;;;3.42;;
17761;SDS011;9005;48.838;10.112;2024-01-30T01:41:35;3.58;;;3.03;;
17761;SDS011;9005;48.838;10.112;2024-01-30T01:44:02;4.95;;;3.53;;
17761;SDS011;9005;48.838;10.112;2024-01-30T01:46:29;5.53;;;3.40;;
17761;SDS011;9005;48.838;10.112;2024-01-30T01:48:58;4.38;;;3.90;;
17761;SDS011;9005;48.838;10.112;2024-01-30T01:51:29;4.53;;;3.30;;
17761;SDS011;9005;48.838;10.112;2024-01-30T01:53:58;4.38;;;3.33;;
17761;SDS011;9005;48.838;10.112;2024-01-30T01:56:27;5.57;;;3.60;;
17761;SDS011;9005;48.838;10.112;2024-01-30T01:58:58;3.58;;;3.00;;
17761;SDS011;9005;48.838;10.112;2024-01-30T02:01:26;3.58;;;2.78;;
17761;SDS011;9005;48.838;10.112;2024-01-30T02:03:55;3.33;;;2.88;;
17761;SDS011;9005;48.838;10.112;2024-01-30T02:06:22;3.85;;;3.47;;
17761;SDS011;9005;48.838;10.112;2024-01-30T02:08:49;4.68;;;3.33;;
17761;SDS011;9005;48.838;10.112;2024-01-30T02:11:17;4.70;;;3.22;;
17761;SDS011;9005;48.838;10.112;2024-01-30T02:13:44;4.57;;;3.08;;
17761;SDS011;9005;48.838;10.112;2024-01-30T02:16:11;4.07;;;3.50;;
17761;SDS011;9005;48.838;10.112;2024-01-30T02:18:38;3.60;;;2.95;;
17761;SDS011;9005;48.838;10.112;2024-01-30T02:21:09;3.22;;;2.88;;
17761;SDS011;9005;48.838;10.112;2024-01-30T02:23:36;3.72;;;3.05;;
17761;SDS011;9005;48.838;10.112;2024-01-30T02:26:03;5.60;;;2.67;;
17761;SDS011;9005;48.838;10.112;2024-01-30T02:28:30;3.95;;;2.90;;
17761;SDS011;9005;48.838;10.112;2024-01-30T02:30:57;3.58;;;3.05;;
17761;SDS011;9005;48.838;10.112;2024-01-30T02:33:24;4.75;;;3.22;;
17761;SDS011;9005;48.838;10.112;2024-01-30T02:35:50;5.53;;;3.10;;
17761;SDS011;9005;48.838;10.112;2024-01-30T02:38:18;4.13;;;3.38;;
17761;SDS011;9005;48.838;10.112;2024-01-30T02:40:45;4.80;;;3.53;;
17761;SDS011;9005;48.838;10.112;2024-01-30T02:43:12;6.63;;;3.08;;
17761;SDS011;9005;48.838;10.112;2024-01-30T02:45:38;4.25;;;3.42;;
17761;SDS011;9005;48.838;10.112;2024-01-30T02:48:05;5.45;;;3.28;;
17761;SDS011;9005;48.838;10.112;2024-01-30T02:50:32;5.05;;;3.53;;
17761;SDS011;9005;48.838;10.112;2024-01-30T02:52:59;4.15;;;3.42;;
17761;SDS011;9005;48.838;10.112;2024-01-30T02:55:27;5.05;;;2.92;;
17761;SDS011;9005;48.838;10.112;2024-01-30T02:57:54;4.13;;;3.63;;
17761;SDS011;9005;48.838;10.112;2024-01-30T03:00:21;4.28;;;3.05;;
17761;SDS011;9005;48.838;10.112;2024-01-30T03:02:48;5.13;;;3.25;;
17761;SDS011;9005;48.838;10.112;2024-01-30T03:05:15;4.70;;;3.20;;
17761;SDS011;9005;48.838;10.112;2024-01-30T03:07:41;4.13;;;3.13;;
17761;SDS011;9005;48.838;10.112;2024-01-30T03:10:08;4.18;;;3.78;;
17761;SDS011;9005;48.838;10.112;2024-01-30T03:12:36;4.43;;;3.60;;
17761;SDS011;9005;48.838;10.112;2024-01-30T03:15:03;5.65;;;3.70;;
17761;SDS011;9005;48.838;10.112;2024-01-30T03:17:30;7.95;;;3.88;;
17761;SDS011;9005;48.838;10.112;2024-01-30T03:19:57;6.82;;;3.22;;
17761;SDS011;9005;48.838;10.112;2024-01-30T03:22:24;5.50;;;4.00;;
17761;SDS011;9005;48.838;10.112;2024-01-30T03:24:50;4.47;;;3.78;;
17761;SDS011;9005;48.838;10.112;2024-01-30T03:27:17;6.78;;;4.10;;
17761;SDS011;9005;48.838;10.112;2024-01-30T03:29:45;4.15;;;3.40;;
17761;SDS011;9005;48.838;10.112;2024-01-30T03:32:12;4.60;;;3.58;;
17761;SDS011;9005;48.838;10.112;2024-01-30T03:34:39;4.97;;;4.03;;
17761;SDS011;9005;48.838;10.112;2024-01-30T03:37:06;4.88;;;3.30;;
17761;SDS011;9005;48.838;10.112;2024-01-30T03:39:32;5.65;;;4.28;;
17761;SDS011;9005;48.838;10.112;2024-01-30T03:41:59;5.45;;;3.40;;
17761;SDS011;9005;48.838;10.112;2024-01-30T03:44:26;3.53;;;3.10;;
17761;SDS011;9005;48.838;10.112;2024-01-30T03:46:54;3.60;;;2.90;;
17761;SDS011;9005;48.838;10.112;2024-01-30T03:49:21;4.18;;;3.05;;
17761;SDS011;9005;48.838;10.112;2024-01-30T03:51:47;3.88;;;3.53;;
17761;SDS011;9005;48.838;10.112;2024-01-30T03:54:14;8.10;;;3.55;;
17761;SDS011;9005;48.838;10.112;2024-01-30T03:56:41;5.00;;;3.80;;
17761;SDS011;9005;48.838;10.112;2024-01-30T03:59:08;4.53;;;3.35;;
17761;SDS011;9005;48.838;10.112;2024-01-30T04:01:34;4.13;;;3.55;;
17761;SDS011;9005;48.838;10.112;2024-01-30T04:04:03;4.68;;;3.90;;
17761;SDS011;9005;48.838;10.112;2024-01-30T04:06:29;4.47;;;3.42;;
17761;SDS011;9005;48.838;10.112;2024-01-30T04:08:56;5.28;;;3.38;;
17761;SDS011;9005;48.838;10.112;2024-01-30T04:11:23;4.57;;;3.75;;
17761;SDS011;9005;48.838;10.112;2024-01-30T04:13:50;5.15;;;3.63;;
17761;SDS011;9005;48.838;10.112;2024-01-30T04:16:20;3.03;;;2.45;;
17761;SDS011;9005;48.838;10.112;2024-01-30T04:18:47;4.68;;;3.25;;
17761;SDS011;9005;48.838;10.112;2024-01-30T04:21:15;7.30;;;4.03;;
17761;SDS011;9005;48.838;10.112;2024-01-30T04:23:42;4.50;;;3.78;;
17761;SDS011;9005;48.838;10.112;2024-01-30T04:26:09;5.18;;;3.80;;
17761;SDS011;9005;48.838;10.112;2024-01-30T04:28:35;7.53;;;4.38;;
17761;SDS011;9005;48.838;10.112;2024-01-30T04:31:02;4.15;;;3.75;;
17761;SDS011;9005;48.838;10.112;2024-01-30T04:33:29;9.13;;;3.85;;
17761;SDS011;9005;48.838;10.112;2024-01-30T04:35:56;4.40;;;3.53;;
17761;SDS011;9005;48.838;10.112;2024-01-30T04:38:24;5.22;;;3.83;;
17761;SDS011;9005;48.838;10.112;2024-01-30T04:40:51;6.50;;;3.75;;
17761;SDS011;9005;48.838;10.112;2024-01-30T04:43:17;4.97;;;3.80;;
17761;SDS011;9005;48.838;10.112;2024-01-30T04:45:45;5.07;;;3.97;;
17761;SDS011;9005;48.838;10.112;2024-01-30T04:48:11;4.57;;;3.75;;
17761;SDS011;9005;48.838;10.112;2024-01-30T04:50:38;5.55;;;4.18;;
17761;SDS011;9005;48.838;10.112;2024-01-30T04:53:05;6.18;;;3.88;;
17761;SDS011;9005;48.838;10.112;2024-01-30T04:55:34;4.25;;;3.40;;
17761;SDS011;9005;48.838;10.112;2024-01-30T04:58:01;4.65;;;3.60;;
17761;SDS011;9005;48.838;10.112;2024-01-30T05:00:28;4.30;;;3.70;;
17761;SDS011;9005;48.838;10.112;2024-01-30T05:02:55;4.45;;;3.80;;
17761;SDS011;9005;48.838;10.112;2024-01-30T05:05:22;5.00;;;4.30;;
17761;SDS011;9005;48.838;10.112;2024-01-30T05:07:49;4.38;;;3.92;;
17761;SDS011;9005;48.838;10.112;2024-01-30T05:10:15;5.22;;;3.85;;
17761;SDS011;9005;48.838;10.112;2024-01-30T05:12:43;4.63;;;4.03;;
17761;SDS011;9005;48.838;10.112;2024-01-30T05:15:10;4.38;;;3.75;;
17761;SDS011;9005;48.838;10.112;2024-01-30T05:17:37;4.95;;;4.00;;
17761;SDS011;9005;48.838;10.112;2024-01-30T05:20:04;5.35;;;4.15;;
17761;SDS011;9005;48.838;10.112;2024-01-30T05:22:32;4.72;;;3.90;;
17761;SDS011;9005;48.838;10.112;2024-01-30T05:24:59;5.20;;;3.92;;
17761;SDS011;9005;48.838;10.112;2024-01-30T05:27:25;6.25;;;4.50;;
17761;SDS011;9005;48.838;10.112;2024-01-30T05:29:53;5.70;;;4.30;;
17761;SDS011;9005;48.838;10.112;2024-01-30T05:32:20;6.18;;;4.00;;
17761;SDS011;9005;48.838;10.112;2024-01-30T05:34:47;6.25;;;4.65;;
17761;SDS011;9005;48.838;10.112;2024-01-30T05:37:13;5.57;;;4.13;;
17761;SDS011;9005;48.838;10.112;2024-01-30T05:39:42;5.10;;;4.18;;
17761;SDS011;9005;48.838;10.112;2024-01-30T05:42:08;5.20;;;4.15;;
17761;SDS011;9005;48.838;10.112;2024-01-30T05:44:36;4.95;;;3.45;;
17761;SDS011;9005;48.838;10.112;2024-01-30T05:47:04;4.65;;;3.60;;
17761;SDS011;9005;48.838;10.112;2024-01-30T05:49:31;5.13;;;4.28;;
17761;SDS011;9005;48.838;10.112;2024-01-30T05:51:57;4.47;;;3.65;;
17761;SDS011;9005;48.838;10.112;2024-01-30T05:54:24;4.95;;;3.65;;
17761;SDS011;9005;48.838;10.112;2024-01-30T05:56:51;5.43;;;3.72;;
17761;SDS011;9005;48.838;10.112;2024-01-30T05:59:17;3.65;;;3.15;;
17761;SDS011;9005;48.838;10.112;2024-01-30T06:01:47;4.53;;;4.13;;
17761;SDS011;9005;48.838;10.112;2024-01-30T06:04:15;6.53;;;4.65;;
17761;SDS011;9005;48.838;10.112;2024-01-30T06:06:42;4.70;;;3.60;;
17761;SDS011;9005;48.838;10.112;2024-01-30T06:09:09;4.15;;;3.30;;
17761;SDS011;9005;48.838;10.112;2024-01-30T06:11:37;5.35;;;3.80;;
17761;SDS011;9005;48.838;10.112;2024-01-30T06:14:04;7.75;;;4.13;;
17761;SDS011;9005;48.838;10.112;2024-01-30T06:16:31;4.13;;;3.72;;
17761;SDS011;9005;48.838;10.112;2024-01-30T06:18:58;4.05;;;3.33;;
17761;SDS011;9005;48.838;10.112;2024-01-30T06:21:26;5.20;;;4.00;;
17761;SDS011;9005;48.838;10.112;2024-01-30T06:23:53;5.00;;;3.60;;
17761;SDS011;9005;48.838;10.112;2024-01-30T06:26:19;4.32;;;3.40;;
17761;SDS011;9005;48.838;10.112;2024-01-30T06:28:46;5.38;;;3.58;;
17761;SDS011;9005;48.838;10.112;2024-01-30T06:31:13;3.85;;;3.25;;
17761;SDS011;9005;48.838;10.112;2024-01-30T06:33:40;4.00;;;3.45;;
17761;SDS011;9005;48.838;10.112;2024-01-30T06:36:07;4.30;;;3.60;;
17761;SDS011;9005;48.838;10.112;2024-01-30T06:38:35;4.75;;;3.40;;
17761;SDS011;9005;48.838;10.112;2024-01-30T06:41:02;3.45;;;3.15;;
17761;SDS011;9005;48.838;10.112;2024-01-30T06:43:29;5.25;;;3.50;;
17761;SDS011;9005;48.838;10.112;2024-01-30T06:45:55;5.03;;;3.55;;
17761;SDS011;9005;48.838;10.112;2024-01-30T06:48:22;5.13;;;3.42;;
17761;SDS011;9005;48.838;10.112;2024-01-30T06:50:49;3.67;;;2.95;;
17761;SDS011;9005;48.838;10.112;2024-01-30T06:53:16;5.88;;;3.22;;
17761;SDS011;9005;48.838;10.112;2024-01-30T06:55:44;3.70;;;3.08;;
17761;SDS011;9005;48.838;10.112;2024-01-30T06:58:11;3.80;;;3.15;;
17761;SDS011;9005;48.838;10.112;2024-01-30T07:00:38;4.13;;;3.00;;
17761;SDS011;9005;48.838;10.112;2024-01-30T07:03:05;3.20;;;2.90;;
17761;SDS011;9005;48.838;10.112;2024-01-30T07:05:32;2.92;;;2.50;;
17761;SDS011;9005;48.838;10.112;2024-01-30T07:07:58;3.83;;;3.30;;
17761;SDS011;9005;48.838;10.112;2024-01-30T07:10:25;4.10;;;3.00;;
17761;SDS011;9005;48.838;10.112;2024-01-30T07:12:53;3.50;;;3.15;;
17761;SDS011;9005;48.838;10.112;2024-01-30T07:15:20;4.22;;;3.63;;
17761;SDS011;9005;48.838;10.112;2024-01-30T07:17:47;4.13;;;3.20;;
17761;SDS011;9005;48.838;10.112;2024-01-30T07:20:13;4.40;;;3.20;;
17761;SDS011;9005;48.838;10.112;2024-01-30T07:22:40;3.83;;;2.90;;
17761;SDS011;9005;48.838;10.112;2024-01-30T07:25:07;3.53;;;2.75;;
17761;SDS011;9005;48.838;10.112;2024-01-30T07:27:34;6.60;;;3.28;;
17761;SDS011;9005;48.838;10.112;2024-01-30T07:30:02;3.60;;;3.30;;
17761;SDS011;9005;48.838;10.112;2024-01-30T07:32:29;3.85;;;3.22;;
17761;SDS011;9005;48.838;10.112;2024-01-30T07:34:56;5.80;;;2.90;;
17761;SDS011;9005;48.838;10.112;2024-01-30T07:37:23;4.07;;;3.28;;
17761;SDS011;9005;48.838;10.112;2024-01-30T07:39:50;3.63;;;3.17;;
17761;SDS011;9005;48.838;10.112;2024-01-30T07:42:17;3.08;;;2.67;;
17761;SDS011;9005;48.838;10.112;2024-01-30T07:44:43;3.10;;;2.70;;
17761;SDS011;9005;48.838;10.112;2024-01-30T07:47:11;3.83;;;3.40;;
17761;SDS011;9005;48.838;10.112;2024-01-30T07:49:38;3.03;;;2.72;;
17761;SDS011;9005;48.838;10.112;2024-01-30T07:52:05;3.30;;;3.00;;
17761;SDS011;9005;48.838;10.112;2024-01-30T07:54:32;4.28;;;3.10;;
17761;SDS011;9005;48.838;10.112;2024-01-30T07:56:59;6.25;;;3.30;;
17761;SDS011;9005;48.838;10.112;2024-01-30T07:59:26;3.33;;;3.03;;
17761;SDS011;9005;48.838;10.112;2024-01-30T08:01:53;4.40;;;3.10;;
17761;SDS011;9005;48.838;10.112;2024-01-30T08:04:21;5.97;;;3.15;;
17761;SDS011;9005;48.838;10.112;2024-01-30T08:06:48;4.18;;;3.40;;
17761;SDS011;9005;48.838;10.112;2024-01-30T08:09:15;4.35;;;3.35;;
17761;SDS011;9005;48.838;10.112;2024-01-30T08:11:41;4.57;;;3.35;;
17761;SDS011;9005;48.838;10.112;2024-01-30T08:14:08;4.72;;;3.38;;
17761;SDS011;9005;48.838;10.112;2024-01-30T08:16:35;4.22;;;3.40;;
17761;SDS011;9005;48.838;10.112;2024-01-30T08:19:02;3.85;;;3.35;;
17761;SDS011;9005;48.838;10.112;2024-01-30T08:21:30;4.05;;;2.92;;
17761;SDS011;9005;48.838;10.112;2024-01-30T08:24:01;8.27;;;2.95;;
17761;SDS011;9005;48.838;10.112;2024-01-30T08:26:29;5.35;;;3.30;;
17761;SDS011;9005;48.838;10.112;2024-01-30T08:28:55;4.25;;;2.80;;
17761;SDS011;9005;48.838;10.112;2024-01-30T08:31:22;5.20;;;3.10;;
17761;SDS011;9005;48.838;10.112;2024-01-30T08:33:49;4.22;;;3.30;;
17761;SDS011;9005;48.838;10.112;2024-01-30T08:36:16;14.15;;;3.65;;
17761;SDS011;9005;48.838;10.112;2024-01-30T08:38:44;6.53;;;3.78;;
17761;SDS011;9005;48.838;10.112;2024-01-30T08:41:11;4.93;;;3.75;;
17761;SDS011;9005;48.838;10.112;2024-01-30T08:43:38;5.07;;;3.40;;
17761;SDS011;9005;48.838;10.112;2024-01-30T08:46:04;6.40;;;3.75;;
17761;SDS011;9005;48.838;10.112;2024-01-30T08:48:31;6.57;;;3.30;;
17761;SDS011;9005;48.838;10.112;2024-01-30T08:50:58;10.15;;;3.40;;
17761;SDS011;9005;48.838;10.112;2024-01-30T08:53:24;4.63;;;3.28;;
17761;SDS011;9005;48.838;10.112;2024-01-30T08:55:52;5.18;;;3.45;;
17761;SDS011;9005;48.838;10.112;2024-01-30T08:58:19;5.45;;;3.53;;
17761;SDS011;9005;48.838;10.112;2024-01-30T09:00:46;5.00;;;3.05;;
17761;SDS011;9005;48.838;10.112;2024-01-30T09:03:13;4.40;;;3.35;;
17761;SDS011;9005;48.838;10.112;2024-01-30T09:05:39;4.30;;;2.97;;
17761;SDS011;9005;48.838;10.112;2024-01-30T09:08:06;5.68;;;3.63;;
17761;SDS011;9005;48.838;10.112;2024-01-30T09:10:33;6.03;;;2.88;;
17761;SDS011;9005;48.838;10.112;2024-01-30T09:13:01;4.78;;;3.30;;
17761;SDS011;9005;48.838;10.112;2024-01-30T09:15:28;4.35;;;3.10;;
17761;SDS011;9005;48.838;10.112;2024-01-30T09:17:55;6.05;;;3.63;;
17761;SDS011;9005;48.838;10.112;2024-01-30T09:20:21;5.88;;;3.03;;
17761;SDS011;9005;48.838;10.112;2024-01-30T09:22:48;3.63;;;3.20;;
17761;SDS011;9005;48.838;10.112;2024-01-30T09:25:15;4.43;;;2.90;;
17761;SDS011;9005;48.838;10.112;2024-01-30T09:27:43;5.28;;;3.75;;
17761;SDS011;9005;48.838;10.112;2024-01-30T09:30:12;3.83;;;3.03;;
17761;SDS011;9005;48.838;10.112;2024-01-30T09:32:39;5.82;;;3.95;;
17761;SDS011;9005;48.838;10.112;2024-01-30T09:35:06;5.18;;;3.08;;
17761;SDS011;9005;48.838;10.112;2024-01-30T09:37:33;5.90;;;3.25;;
17761;SDS011;9005;48.838;10.112;2024-01-30T09:40:00;5.45;;;3.78;;
17761;SDS011;9005;48.838;10.112;2024-01-30T09:42:28;6.88;;;4.05;;
17761;SDS011;9005;48.838;10.112;2024-01-30T09:45:00;7.80;;;3.85;;
17761;SDS011;9005;48.838;10.112;2024-01-30T09:47:29;4.45;;;4.05;;
17761;SDS011;9005;48.838;10.112;2024-01-30T09:49:57;5.03;;;3.38;;
17761;SDS011;9005;48.838;10.112;2024-01-30T09:52:24;8.15;;;3.25;;
17761;SDS011;9005;48.838;10.112;2024-01-30T09:54:51;4.32;;;3.35;;
17761;SDS011;9005;48.838;10.112;2024-01-30T09:57:19;3.50;;;3.13;;
17761;SDS011;9005;48.838;10.112;2024-01-30T09:59:46;4.15;;;3.35;;
17761;SDS011;9005;48.838;10.112;2024-01-30T10:02:13;3.60;;;2.92;;
17761;SDS011;9005;48.838;10.112;2024-01-30T10:04:41;3.90;;;3.35;;
17761;SDS011;9005;48.838;10.112;2024-01-30T10:07:08;4.90;;;3.10;;
17761;SDS011;9005;48.838;10.112;2024-01-30T10:09:37;5.18;;;3.22;;
17761;SDS011;9005;48.838;10.112;2024-01-30T10:12:04;4.70;;;3.40;;
17761;SDS011;9005;48.838;10.112;2024-01-30T10:14:33;12.10;;;3.08;;
17761;SDS011;9005;48.838;10.112;2024-01-30T10:17:03;10.60;;;3.45;;
17761;SDS011;9005;48.838;10.112;2024-01-30T10:19:30;5.28;;;3.05;;
17761;SDS011;9005;48.838;10.112;2024-01-30T10:21:58;5.30;;;3.55;;
17761;SDS011;9005;48.838;10.112;2024-01-30T10:24:26;3.55;;;3.17;;
17761;SDS011;9005;48.838;10.112;2024-01-30T10:26:54;4.40;;;3.80;;
17761;SDS011;9005;48.838;10.112;2024-01-30T10:29:21;6.63;;;3.63;;
17761;SDS011;9005;48.838;10.112;2024-01-30T10:31:57;3.67;;;2.92;;
17761;SDS011;9005;48.838;10.112;2024-01-30T10:34:24;5.20;;;3.03;;
17761;SDS011;9005;48.838;10.112;2024-01-30T10:36:51;5.05;;;3.78;;
17761;SDS011;9005;48.838;10.112;2024-01-30T10:39:29;4.90;;;3.65;;
17761;SDS011;9005;48.838;10.112;2024-01-30T10:42:06;5.00;;;3.78;;
17761;SDS011;9005;48.838;10.112;2024-01-30T10:44:37;3.08;;;2.63;;
17761;SDS011;9005;48.838;10.112;2024-01-30T10:47:12;3.35;;;2.92;;
17761;SDS011;9005;48.838;10.112;2024-01-30T10:49:40;4.40;;;3.42;;
17761;SDS011;9005;48.838;10.112;2024-01-30T10:52:08;3.65;;;3.17;;
17761;SDS011;9005;48.838;10.112;2024-01-30T10:54:37;4.47;;;2.83;;
17761;SDS011;9005;48.838;10.112;2024-01-30T10:57:06;4.60;;;4.07;;
17761;SDS011;9005;48.838;10.112;2024-01-30T10:59:35;5.30;;;4.07;;
17761;SDS011;9005;48.838;10.112;2024-01-30T11:02:02;4.72;;;4.10;;
17761;SDS011;9005;48.838;10.112;2024-01-30T11:04:35;5.32;;;3.38;;
17761;SDS011;9005;48.838;10.112;2024-01-30T11:07:02;3.67;;;3.38;;
17761;SDS011;9005;48.838;10.112;2024-01-30T11:09:40;3.20;;;2.90;;
17761;SDS011;9005;48.838;10.112;2024-01-30T11:12:14;3.72;;;2.92;;
17761;SDS011;9005;48.838;10.112;2024-01-30T11:14:40;3.20;;;2.13;;
17761;SDS011;9005;48.838;10.112;2024-01-30T11:17:08;2.45;;;2.25;;
17761;SDS011;9005;48.838;10.112;2024-01-30T11:19:37;2.63;;;2.10;;
17761;SDS011;9005;48.838;10.112;2024-01-30T11:22:06;2.88;;;2.20;;
17761;SDS011;9005;48.838;10.112;2024-01-30T11:24:36;2.03;;;1.85;;
17761;SDS011;9005;48.838;10.112;2024-01-30T11:27:08;3.20;;;2.20;;
17761;SDS011;9005;48.838;10.112;2024-01-30T11:29:35;2.85;;;2.33;;
17761;SDS011;9005;48.838;10.112;2024-01-30T11:32:02;4.38;;;2.13;;
17761;SDS011;9005;48.838;10.112;2024-01-30T11:34:30;4.25;;;2.20;;
17761;SDS011;9005;48.838;10.112;2024-01-30T11:36:59;2.47;;;1.70;;
17761;SDS011;9005;48.838;10.112;2024-01-30T11:39:28;2.53;;;2.28;;
17761;SDS011;9005;48.838;10.112;2024-01-30T11:41:57;2.40;;;1.90;;
17761;SDS011;9005;48.838;10.112;2024-01-30T11:44:25;2.50;;;1.70;;
17761;SDS011;9005;48.838;10.112;2024-01-30T11:46:52;3.03;;;1.48;;
17761;SDS011;9005;48.838;10.112;2024-01-30T11:49:19;1.30;;;1.20;;
17761;SDS011;9005;48.838;10.112;2024-01-30T11:51:46;1.10;;;1.00;;
17761;SDS011;9005;48.838;10.112;2024-01-30T11:54:14;0.90;;;0.90;;
17761;SDS011;9005;48.838;10.112;2024-01-30T11:56:41;1.40;;;1.20;;
17761;SDS011;9005;48.838;10.112;2024-01-30T11:59:10;1.35;;;1.10;;
17761;SDS011;9005;48.838;10.112;2024-01-30T12:01:37;3.72;;;1.45;;
17761;SDS011;9005;48.838;10.112;2024-01-30T12:04:04;2.03;;;1.17;;
17761;SDS011;9005;48.838;10.112;2024-01-30T12:06:33;0.80;;;0.80;;
17761;SDS011;9005;48.838;10.112;2024-01-30T12:09:01;1.55;;;1.15;;
17761;SDS011;9005;48.838;10.112;2024-01-30T12:11:30;1.00;;;1.00;;
17761;SDS011;9005;48.838;10.112;2024-01-30T12:13:56;2.30;;;1.25;;
17761;SDS011;9005;48.838;10.112;2024-01-30T12:16:25;1.67;;;1.30;;
17761;SDS011;9005;48.838;10.112;2024-01-30T12:18:58;1.35;;;1.08;;
17761;SDS011;9005;48.838;10.112;2024-01-30T12:21:26;2.60;;;1.50;;
17761;SDS011;9005;48.838;10.112;2024-01-30T12:23:52;1.20;;;1.10;;
17761;SDS011;9005;48.838;10.112;2024-01-30T12:26:20;1.30;;;1.20;;
17761;SDS011;9005;48.838;10.112;2024-01-30T12:28:47;1.17;;;1.08;;
17761;SDS011;9005;48.838;10.112;2024-01-30T12:31:15;2.95;;;1.23;;
17761;SDS011;9005;48.838;10.112;2024-01-30T12:33:43;1.60;;;1.23;;
17761;SDS011;9005;48.838;10.112;2024-01-30T12:36:09;1.08;;;0.98;;
17761;SDS011;9005;48.838;10.112;2024-01-30T12:38:37;1.10;;;1.00;;
17761;SDS011;9005;48.838;10.112;2024-01-30T12:41:06;1.55;;;1.15;;
17761;SDS011;9005;48.838;10.112;2024-01-30T12:43:34;1.92;;;1.40;;
17761;SDS011;9005;48.838;10.112;2024-01-30T12:46:00;1.63;;;1.13;;
17761;SDS011;9005;48.838;10.112;2024-01-30T12:48:28;1.63;;;1.40;;
17761;SDS011;9005;48.838;10.112;2024-01-30T12:50:57;1.42;;;1.17;;
17761;SDS011;9005;48.838;10.112;2024-01-30T12:53:24;1.80;;;1.10;;
17761;SDS011;9005;48.838;10.112;2024-01-30T12:55:51;1.08;;;0.95;;
17761;SDS011;9005;48.838;10.112;2024-01-30T12:58:19;1.00;;;0.90;;
17761;SDS011;9005;48.838;10.112;2024-01-30T13:00:46;1.90;;;1.20;;
17761;SDS011;9005;48.838;10.112;2024-01-30T13:03:13;1.17;;;0.90;;
17761;SDS011;9005;48.838;10.112;2024-01-30T13:05:39;1.80;;;1.05;;
17761;SDS011;9005;48.838;10.112;2024-01-30T13:08:07;1.23;;;1.13;;
17761;SDS011;9005;48.838;10.112;2024-01-30T13:10:34;1.00;;;0.88;;
17761;SDS011;9005;48.838;10.112;2024-01-30T13:13:01;3.45;;;1.15;;
17761;SDS011;9005;48.838;10.112;2024-01-30T13:15:28;1.25;;;1.02;;
17761;SDS011;9005;48.838;10.112;2024-01-30T13:17:54;1.77;;;1.02;;
17761;SDS011;9005;48.838;10.112;2024-01-30T13:20:21;3.38;;;1.15;;
17761;SDS011;9005;48.838;10.112;2024-01-30T13:22:48;1.58;;;1.10;;
17761;SDS011;9005;48.838;10.112;2024-01-30T13:25:16;1.63;;;1.20;;
17761;SDS011;9005;48.838;10.112;2024-01-30T13:27:43;2.15;;;1.27;;
17761;SDS011;9005;48.838;10.112;2024-01-30T13:30:10;1.65;;;1.20;;
17761;SDS011;9005;48.838;10.112;2024-01-30T13:32:38;1.63;;;1.38;;
17761;SDS011;9005;48.838;10.112;2024-01-30T13:35:06;1.88;;;1.10;;
17761;SDS011;9005;48.838;10.112;2024-01-30T13:37:33;1.27;;;1.17;;
17761;SDS011;9005;48.838;10.112;2024-01-30T13:40:00;1.88;;;1.25;;
17761;SDS011;9005;48.838;10.112;2024-01-30T13:42:28;2.97;;;1.55;;
17761;SDS011;9005;48.838;10.112;2024-01-30T13:44:55;1.45;;;1.20;;
17761;SDS011;9005;48.838;10.112;2024-01-30T13:47:22;3.05;;;1.20;;
17761;SDS011;9005;48.838;10.112;2024-01-30T13:49:48;2.42;;;1.40;;
17761;SDS011;9005;48.838;10.112;2024-01-30T13:52:15;1.20;;;1.10;;
17761;SDS011;9005;48.838;10.112;2024-01-30T13:54:42;1.13;;;0.98;;
17761;SDS011;9005;48.838;10.112;2024-01-30T13:57:09;1.10;;;1.00;;
17761;SDS011;9005;48.838;10.112;2024-01-30T13:59:37;1.38;;;1.25;;
17761;SDS011;9005;48.838;10.112;2024-01-30T14:02:04;2.42;;;1.13;;
17761;SDS011;9005;48.838;10.112;2024-01-30T14:04:31;2.75;;;1.02;;
17761;SDS011;9005;48.838;10.112;2024-01-30T14:06:58;1.65;;;1.35;;
17761;SDS011;9005;48.838;10.112;2024-01-30T14:09:25;1.48;;;1.20;;
17761;SDS011;9005;48.838;10.112;2024-01-30T14:11:52;2.55;;;1.55;;
17761;SDS011;9005;48.838;10.112;2024-01-30T14:14:18;1.38;;;1.10;;
17761;SDS011;9005;48.838;10.112;2024-01-30T14:16:46;1.55;;;1.23;;
17761;SDS011;9005;48.838;10.112;2024-01-30T14:19:13;1.38;;;1.15;;
17761;SDS011;9005;48.838;10.112;2024-01-30T14:21:40;1.25;;;0.90;;
17761;SDS011;9005;48.838;10.112;2024-01-30T14:24:07;2.28;;;1.45;;
17761;SDS011;9005;48.838;10.112;2024-01-30T14:26:33;2.08;;;1.38;;
17761;SDS011;9005;48.838;10.112;2024-01-30T14:29:01;3.08;;;1.45;;
17761;SDS011;9005;48.838;10.112;2024-01-30T14:31:28;1.70;;;1.50;;
17761;SDS011;9005;48.838;10.112;2024-01-30T14:33:56;1.20;;;1.10;;
17761;SDS011;9005;48.838;10.112;2024-01-30T14:36:22;1.20;;;1.02;;
17761;SDS011;9005;48.838;10.112;2024-01-30T14:38:52;1.42;;;1.33;;
17761;SDS011;9005;48.838;10.112;2024-01-30T14:41:19;1.40;;;1.27;;
17761;SDS011;9005;48.838;10.112;2024-01-30T14:43:46;1.35;;;1.10;;
17761;SDS011;9005;48.838;10.112;2024-01-30T14:46:13;1.60;;;1.38;;
17761;SDS011;9005;48.838;10.112;2024-01-30T14:48:41;2.42;;;1.23;;